Time;durP1;ratioP1;P1;durP2;ratioP2;P2;SDS_P1;SDS_P2;PMS_P1;PMS_P2;Temp;Humidity;BMP_temperature;BMP_pressure;BME280_temperature;BME280_humidity;BME280_pressure;Samples;Min_cycle;Max_cycle;Signal;HPM_P1;HPM_P2
2022/01/05 00:00:45;;;;;;;5.63;1.42;;;23.00;62.80;;;;;;4945827;28;20152;-84
2022/01/05 00:03:12;;;;;;;3.40;1.20;;;22.90;63.00;;;;;;4947523;28;20398;-83
2022/01/05 00:05:39;;;;;;;6.68;2.13;;;23.00;63.00;;;;;;4948694;28;20078;-85
2022/01/05 00:08:05;;;;;;;5.43;1.45;;;22.90;63.10;;;;;;4948302;28;20078;-84
2022/01/05 00:10:32;;;;;;;8.40;1.67;;;22.90;63.10;;;;;;4953407;28;20031;-85
2022/01/05 00:12:58;;;;;;;4.72;1.30;;;22.90;63.20;;;;;;4948911;28;20027;-88
2022/01/05 00:15:27;;;;;;;3.40;1.08;;;22.90;63.20;;;;;;4952754;28;20018;-75
2022/01/05 00:17:54;;;;;;;7.80;1.58;;;22.90;63.20;;;;;;4953573;28;20031;-82
2022/01/05 00:20:20;;;;;;;3.13;1.48;;;22.90;63.30;;;;;;4949751;28;20321;-87
2022/01/05 00:22:47;;;;;;;2.83;1.05;;;22.90;63.30;;;;;;4965355;28;20047;-86
2022/01/05 00:25:14;;;;;;;4.18;1.10;;;22.90;63.30;;;;;;4945311;28;20035;-80
2022/01/05 00:27:40;;;;;;;3.00;1.30;;;22.80;63.20;;;;;;4969225;28;20446;-86
2022/01/05 00:30:07;;;;;;;7.78;2.28;;;22.80;63.20;;;;;;4971013;28;20398;-86
2022/01/05 00:32:34;;;;;;;10.85;2.85;;;22.80;63.40;;;;;;4968438;28;20019;-83
2022/01/05 00:35:00;;;;;;;3.42;1.10;;;22.80;63.40;;;;;;4966765;28;20478;-74
2022/01/05 00:37:28;;;;;;;4.45;1.23;;;22.80;63.50;;;;;;4963017;28;20453;-84
2022/01/05 00:40:06;;;;;;;3.55;1.13;;;22.80;63.50;;;;;;4970239;28;20022;-79
2022/01/05 00:42:33;;;;;;;3.38;1.02;;;22.80;63.50;;;;;;4948946;28;20490;-76
2022/01/05 00:44:59;;;;;;;3.05;0.90;;;22.70;63.60;;;;;;4954417;28;20035;-80
2022/01/05 00:47:26;;;;;;;6.30;1.33;;;22.80;63.80;;;;;;4969218;28;20081;-82
2022/01/05 00:49:52;;;;;;;2.25;1.13;;;22.70;63.80;;;;;;4963973;28;20031;-79
2022/01/05 00:52:19;;;;;;;10.20;1.40;;;22.70;63.90;;;;;;4964785;28;20101;-84
2022/01/05 00:54:46;;;;;;;2.83;1.23;;;22.70;64.10;;;;;;4969755;28;20031;-79
2022/01/05 00:57:12;;;;;;;4.85;0.93;;;22.70;64.20;;;;;;4960682;28;20390;-82
2022/01/05 00:59:39;;;;;;;4.30;0.80;;;22.70;64.40;;;;;;4951355;28;20203;-82
2022/01/05 01:02:06;;;;;;;4.88;1.08;;;22.70;64.40;;;;;;4965863;28;20022;-81
2022/01/05 01:04:32;;;;;;;2.17;0.90;;;22.70;64.40;;;;;;4970575;28;20023;-82
2022/01/05 01:06:59;;;;;;;2.47;1.08;;;22.70;64.30;;;;;;4972720;28;20046;-83
2022/01/05 01:09:25;;;;;;;4.38;1.48;;;22.70;64.20;;;;;;4973503;28;20316;-73
2022/01/05 01:11:52;;;;;;;4.97;1.25;;;22.60;64.20;;;;;;4970511;28;20019;-81
2022/01/05 01:14:19;;;;;;;4.50;1.38;;;22.60;64.20;;;;;;4970430;28;20667;-78
2022/01/05 01:16:45;;;;;;;10.88;1.70;;;22.60;64.20;;;;;;4967760;28;20027;-83
2022/01/05 01:19:12;;;;;;;3.75;1.58;;;22.60;64.70;;;;;;4971711;28;20022;-77
2022/01/05 01:21:40;;;;;;;6.20;1.80;;;22.60;64.50;;;;;;4971597;28;20131;-84
2022/01/05 01:24:06;;;;;;;7.85;1.55;;;22.60;64.70;;;;;;4968390;28;20074;-81
2022/01/05 01:26:33;;;;;;;5.50;1.13;;;22.60;64.80;;;;;;4972447;28;20093;-80
2022/01/05 01:29:01;;;;;;;3.88;1.00;;;22.60;64.90;;;;;;4970539;28;20015;-82
2022/01/05 01:31:28;;;;;;;2.78;0.80;;;22.60;65.00;;;;;;4964845;28;20015;-81
2022/01/05 01:33:55;;;;;;;5.35;0.90;;;22.60;65.10;;;;;;4973501;28;20434;-82
2022/01/05 01:36:21;;;;;;;3.72;1.00;;;22.60;65.90;;;;;;4969566;28;20026;-84
2022/01/05 01:38:50;;;;;;;2.88;0.95;;;22.60;65.50;;;;;;4976521;28;20019;-82
2022/01/05 01:41:17;;;;;;;4.53;1.00;;;22.60;65.60;;;;;;4959012;28;20568;-82
2022/01/05 01:43:44;;;;;;;6.40;1.60;;;22.60;65.70;;;;;;4974236;28;20081;-83
2022/01/05 01:46:11;;;;;;;8.40;1.73;;;22.60;65.90;;;;;;4973097;28;20029;-82
2022/01/05 01:48:38;;;;;;;8.05;1.65;;;22.60;66.00;;;;;;4977875;28;20049;-83
2022/01/05 01:51:06;;;;;;;5.20;1.10;;;22.60;66.10;;;;;;4967026;28;20019;-83
2022/01/05 01:53:32;;;;;;;2.42;1.10;;;22.60;66.10;;;;;;4969639;28;20094;-85
2022/01/05 01:56:02;;;;;;;5.88;1.02;;;22.70;66.30;;;;;;4971987;28;20106;-86
2022/01/05 01:58:33;;;;;;;2.75;1.00;;;22.70;66.40;;;;;;4965927;28;20018;-84
2022/01/05 02:01:00;;;;;;;6.40;1.77;;;22.70;66.50;;;;;;4969574;28;20021;-81
2022/01/05 02:03:27;;;;;;;8.68;1.20;;;22.70;66.50;;;;;;4971049;28;20015;-85
2022/01/05 02:05:54;;;;;;;3.65;0.80;;;22.70;66.60;;;;;;4962335;28;20716;-84
2022/01/05 02:08:21;;;;;;;1.77;0.73;;;22.70;66.60;;;;;;4973324;28;20045;-84
2022/01/05 02:10:49;;;;;;;3.75;0.82;;;22.70;66.60;;;;;;4966683;28;20023;-84
2022/01/05 02:13:20;;;;;;;2.35;0.82;;;22.70;66.60;;;;;;4967619;28;20633;-84
2022/01/05 02:15:48;;;;;;;15.10;1.65;;;22.70;66.60;;;;;;4952361;28;20039;-80
2022/01/05 02:21:01;;;;;;;56.38;7.20;;;22.70;66.70;;;;;;4964084;28;20074;-81
2022/01/05 02:23:28;;;;;;;35.70;3.17;;;22.70;67.10;;;;;;4967701;28;20118;-81
2022/01/05 02:25:54;;;;;;;26.75;3.58;;;22.70;67.20;;;;;;4970846;28;20485;-81
2022/01/05 02:28:21;;;;;;;20.40;3.63;;;22.70;67.10;;;;;;4967941;28;20512;-83
2022/01/05 02:30:52;;;;;;;26.58;3.58;;;22.70;67.00;;;;;;4971624;28;20037;-80
2022/01/05 02:33:19;;;;;;;19.75;2.25;;;22.70;66.90;;;;;;4970162;28;20023;-80
2022/01/05 02:35:46;;;;;;;11.80;2.53;;;22.70;66.90;;;;;;4969919;28;20039;-81
2022/01/05 02:38:17;;;;;;;24.40;2.95;;;22.70;66.90;;;;;;4969010;28;20077;-79
2022/01/05 02:40:43;;;;;;;31.77;3.85;;;22.70;66.90;;;;;;4966020;28;20031;-82
2022/01/05 02:43:10;;;;;;;23.23;2.72;;;22.70;67.20;;;;;;4963773;28;20019;-82
2022/01/05 02:45:36;;;;;;;21.33;3.17;;;22.70;67.30;;;;;;4965564;28;20050;-82
2022/01/05 02:48:04;;;;;;;13.45;2.92;;;22.70;67.30;;;;;;4969699;28;20020;-79
2022/01/05 02:50:31;;;;;;;14.45;2.30;;;22.70;67.20;;;;;;4967541;28;20453;-78
2022/01/05 02:52:57;;;;;;;18.13;2.22;;;22.70;67.10;;;;;;4964562;28;20081;-76
2022/01/05 02:55:24;;;;;;;11.23;2.10;;;22.70;67.10;;;;;;4968680;28;20023;-82
2022/01/05 02:57:50;;;;;;;22.45;3.78;;;22.70;67.20;;;;;;4968257;28;20024;-77
2022/01/05 03:00:17;;;;;;;29.83;3.67;;;22.70;67.20;;;;;;4964772;28;20068;-83
2022/01/05 03:02:44;;;;;;;10.40;1.83;;;22.70;67.20;;;;;;4962343;28;20402;-82
2022/01/05 03:05:12;;;;;;;4.82;1.70;;;22.70;67.00;;;;;;4969938;28;20074;-81
2022/01/05 03:07:41;;;;;;;8.07;1.98;;;22.70;66.90;;;;;;4964496;28;20034;-80
2022/01/05 03:10:10;;;;;;;12.00;2.15;;;22.70;66.90;;;;;;4964473;28;20173;-80
2022/01/05 03:12:38;;;;;;;22.80;2.90;;;22.60;66.70;;;;;;4968701;28;20494;-81
2022/01/05 03:15:06;;;;;;;17.13;2.67;;;22.60;66.70;;;;;;4963559;28;20015;-80
2022/01/05 03:17:32;;;;;;;5.18;1.52;;;22.70;66.70;;;;;;4968323;28;20023;-84
2022/01/05 03:19:59;;;;;;;6.65;1.52;;;22.60;66.60;;;;;;4962805;28;20037;-82
2022/01/05 03:22:25;;;;;;;44.25;5.95;;;22.60;66.60;;;;;;4963021;28;20197;-82
2022/01/05 03:24:52;;;;;;;76.25;31.13;;;22.60;66.70;;;;;;4962435;28;20018;-77
2022/01/05 03:27:18;;;;;;;30.48;12.30;;;22.60;66.90;;;;;;4967259;28;20034;-80
2022/01/05 03:29:45;;;;;;;43.90;9.45;;;22.50;67.80;;;;;;4968106;28;20058;-81
2022/01/05 03:32:11;;;;;;;34.38;7.18;;;22.40;68.00;;;;;;4966290;28;20019;-81
2022/01/05 03:34:38;;;;;;;40.38;6.28;;;22.40;67.90;;;;;;4963884;28;20029;-83
2022/01/05 03:37:05;;;;;;;22.58;4.53;;;22.40;67.70;;;;;;4967200;28;20027;-84
2022/01/05 03:39:31;;;;;;;14.98;2.97;;;22.40;67.50;;;;;;4961379;28;20025;-78
2022/01/05 03:41:58;;;;;;;31.83;3.85;;;22.40;67.40;;;;;;4968777;28;20581;-80
2022/01/05 03:44:26;;;;;;;35.38;4.10;;;22.40;67.50;;;;;;4964443;28;20025;-76
2022/01/05 03:46:53;;;;;;;35.42;3.88;;;22.30;67.60;;;;;;4967770;28;20022;-81
2022/01/05 03:49:19;;;;;;;12.40;2.17;;;22.30;67.60;;;;;;4967400;28;20437;-83
2022/01/05 03:51:46;;;;;;;28.73;4.45;;;22.30;67.50;;;;;;4966722;28;20362;-83
2022/01/05 03:54:12;;;;;;;17.50;2.00;;;22.30;67.40;;;;;;4966513;28;20030;-83
2022/01/05 03:56:39;;;;;;;18.58;4.13;;;22.30;67.50;;;;;;4967228;28;20022;-83
2022/01/05 03:59:05;;;;;;;10.38;2.10;;;22.30;67.50;;;;;;4963577;28;20474;-74
2022/01/05 04:01:32;;;;;;;11.43;2.47;;;22.30;67.60;;;;;;4950849;28;20429;-81
2022/01/05 04:03:58;;;;;;;17.67;2.20;;;22.30;67.70;;;;;;4965066;28;20098;-78
2022/01/05 04:06:25;;;;;;;23.40;4.45;;;22.30;68.60;;;;;;4968020;28;20029;-81
2022/01/05 04:08:51;;;;;;;54.55;17.90;;;22.20;68.70;;;;;;4968724;28;20038;-75
2022/01/05 04:11:18;;;;;;;60.58;30.73;;;22.20;69.10;;;;;;4965136;28;20032;-80
2022/01/05 04:13:44;;;;;;;53.80;24.25;;;22.20;69.20;;;;;;4968038;28;20022;-78
2022/01/05 04:16:11;;;;;;;24.80;14.65;;;22.20;69.10;;;;;;4964322;28;20015;-78
2022/01/05 04:18:38;;;;;;;34.97;10.35;;;22.20;69.00;;;;;;4969193;28;20022;-79
2022/01/05 04:21:04;;;;;;;18.20;6.32;;;22.20;68.90;;;;;;4966018;28;20027;-72
2022/01/05 04:23:31;;;;;;;26.17;6.25;;;22.20;68.90;;;;;;4967956;28;20045;-79
2022/01/05 04:25:57;;;;;;;27.75;5.40;;;22.20;68.80;;;;;;4970158;28;20034;-74
2022/01/05 04:28:24;;;;;;;18.05;3.92;;;22.20;68.80;;;;;;4965214;28;20520;-72
2022/01/05 04:30:50;;;;;;;22.42;3.33;;;22.30;68.90;;;;;;4966146;28;20033;-80
2022/01/05 04:33:17;;;;;;;23.40;3.17;;;22.30;68.90;;;;;;4966138;28;20450;-81
2022/01/05 04:35:43;;;;;;;25.45;5.47;;;22.30;68.90;;;;;;4968090;28;20367;-78
2022/01/05 04:38:10;;;;;;;19.30;7.90;;;22.30;69.00;;;;;;4962354;28;20023;-75
2022/01/05 04:40:36;;;;;;;21.92;12.07;;;22.30;69.00;;;;;;4966837;28;20027;-78
2022/01/05 04:43:03;;;;;;;18.52;9.45;;;22.30;69.00;;;;;;4973508;28;20014;-79
2022/01/05 04:45:29;;;;;;;18.60;15.75;;;22.30;69.00;;;;;;4972473;28;20014;-76
2022/01/05 04:47:56;;;;;;;21.90;19.65;;;22.30;69.00;;;;;;4973437;28;20037;-79
2022/01/05 04:50:22;;;;;;;26.30;16.95;;;22.30;69.00;;;;;;4964939;28;20129;-90
2022/01/05 04:52:49;;;;;;;30.40;12.07;;;22.40;69.00;;;;;;4969798;28;20046;-83
2022/01/05 04:55:15;;;;;;;13.00;7.03;;;22.40;69.00;;;;;;4970027;28;20023;-80
2022/01/05 04:57:42;;;;;;;7.15;4.55;;;22.40;69.00;;;;;;4966291;28;20030;-78
2022/01/05 05:00:09;;;;;;;7.90;2.72;;;22.40;68.90;;;;;;4969249;28;20019;-78
2022/01/05 05:02:35;;;;;;;8.38;2.78;;;22.40;68.80;;;;;;4972732;28;20023;-81
2022/01/05 05:05:02;;;;;;;14.75;2.30;;;22.30;68.70;;;;;;4972083;28;20466;-78
2022/01/05 05:07:28;;;;;;;8.40;1.60;;;22.40;68.90;;;;;;4968147;28;20038;-79
2022/01/05 05:09:55;;;;;;;5.45;1.30;;;22.40;68.90;;;;;;4969431;28;20058;-80
2022/01/05 05:12:21;;;;;;;3.38;1.00;;;22.40;68.90;;;;;;4970917;28;20050;-77
2022/01/05 05:14:48;;;;;;;3.97;1.10;;;22.40;68.90;;;;;;4972092;28;20042;-80
2022/01/05 05:17:14;;;;;;;3.00;0.90;;;22.40;68.90;;;;;;4966722;28;20019;-75
2022/01/05 05:19:45;;;;;;;4.13;1.00;;;22.40;68.90;;;;;;4968495;28;20041;-74
2022/01/05 05:22:11;;;;;;;14.75;1.85;;;22.40;68.80;;;;;;4950723;28;20109;-71
2022/01/05 05:24:37;;;;;;;23.17;4.00;;;22.50;68.70;;;;;;4946194;28;20035;-73
2022/01/05 05:27:07;;;;;;;71.93;8.75;;;22.50;68.70;;;;;;4953591;28;20039;-77
2022/01/05 05:29:34;;;;;;;43.78;4.40;;;22.40;68.90;;;;;;4949057;28;20028;-75
2022/01/05 05:32:00;;;;;;;38.83;10.02;;;22.50;69.20;;;;;;4950153;28;20019;-74
2022/01/05 05:34:26;;;;;;;48.25;19.83;;;22.50;69.30;;;;;;4948438;28;20785;-74
2022/01/05 05:36:53;;;;;;;39.80;17.40;;;22.50;69.30;;;;;;4950728;28;20106;-73
2022/01/05 05:39:19;;;;;;;39.47;15.15;;;22.50;69.30;;;;;;4948531;28;20071;-73
2022/01/05 05:41:46;;;;;;;19.67;8.00;;;22.60;69.60;;;;;;4954943;28;20023;-75
2022/01/05 05:44:12;;;;;;;15.35;5.00;;;22.60;69.70;;;;;;4946145;28;20055;-76
2022/01/05 05:46:39;;;;;;;21.92;3.90;;;22.60;69.70;;;;;;4950542;28;20082;-75
2022/01/05 05:49:05;;;;;;;11.10;3.63;;;22.60;69.70;;;;;;4951123;28;20562;-73
2022/01/05 05:51:32;;;;;;;11.05;3.10;;;22.70;69.60;;;;;;4945300;28;20035;-72
2022/01/05 05:54:00;;;;;;;8.25;2.17;;;22.70;69.50;;;;;;4952028;28;20401;-76
2022/01/05 05:56:29;;;;;;;3.65;1.50;;;22.70;69.40;;;;;;4951564;28;20038;-73
2022/01/05 05:58:56;;;;;;;11.30;2.70;;;22.80;69.40;;;;;;4948379;28;20114;-73
2022/01/05 06:01:22;;;;;;;6.70;1.38;;;22.80;69.40;;;;;;4950148;28;20031;-74
2022/01/05 06:03:48;;;;;;;11.48;2.42;;;22.80;69.20;;;;;;4948939;28;20027;-77
2022/01/05 06:06:15;;;;;;;17.50;2.88;;;22.80;68.50;;;;;;4950359;28;20034;-74
2022/01/05 06:08:42;;;;;;;4.22;1.50;;;22.80;67.90;;;;;;4950627;28;20035;-76
2022/01/05 06:11:09;;;;;;;5.75;1.80;;;22.80;67.90;;;;;;4949579;28;20035;-74
2022/01/05 06:13:35;;;;;;;37.83;4.38;;;22.70;68.40;;;;;;4947793;28;20024;-77
2022/01/05 06:16:02;;;;;;;19.38;1.85;;;22.70;67.80;;;;;;4953618;28;20030;-73
2022/01/05 06:18:28;;;;;;;73.50;7.60;;;22.70;67.70;;;;;;4951304;28;20030;-78
2022/01/05 06:20:55;;;;;;;35.85;4.43;;;22.80;67.00;;;;;;4949477;28;20495;-74
2022/01/05 06:23:21;;;;;;;40.08;5.80;;;22.80;67.20;;;;;;4964569;28;20081;-70
2022/01/05 06:25:48;;;;;;;40.83;7.28;;;22.80;67.50;;;;;;4968693;28;20027;-73
2022/01/05 06:28:14;;;;;;;26.92;4.32;;;22.80;67.70;;;;;;4966259;28;20042;-77
2022/01/05 06:30:41;;;;;;;87.93;9.32;;;22.90;67.80;;;;;;4969079;28;20019;-73
2022/01/05 06:33:08;;;;;;;197.20;23.92;;;22.90;68.30;;;;;;4965661;28;20596;-76
2022/01/05 06:35:35;;;;;;;152.52;18.25;;;23.00;68.40;;;;;;4965816;28;20034;-73
2022/01/05 06:38:02;;;;;;;133.50;15.05;;;23.10;68.40;;;;;;4968879;28;20026;-78
2022/01/05 06:40:28;;;;;;;96.07;13.57;;;23.10;68.00;;;;;;4968589;28;20779;-78
2022/01/05 06:42:55;;;;;;;64.38;6.72;;;23.10;67.50;;;;;;4965829;28;20051;-79
2022/01/05 06:45:22;;;;;;;49.70;6.35;;;23.20;67.30;;;;;;4970059;28;20010;-76
2022/01/05 06:47:49;;;;;;;37.85;4.70;;;23.20;66.70;;;;;;4965892;28;20046;-73
2022/01/05 06:50:15;;;;;;;38.15;4.22;;;23.30;66.50;;;;;;4968022;28;20037;-74
2022/01/05 06:52:42;;;;;;;15.85;4.95;;;23.30;66.40;;;;;;4964814;28;20105;-76
2022/01/05 06:55:09;;;;;;;12.07;4.30;;;23.30;67.00;;;;;;4966683;28;20046;-76
2022/01/05 06:57:40;;;;;;;32.05;5.20;;;23.40;67.40;;;;;;4969224;28;20437;-75
2022/01/05 07:00:09;;;;;;;23.65;4.65;;;23.40;67.40;;;;;;4968216;28;20025;-73
2022/01/05 07:02:36;;;;;;;16.20;3.95;;;23.40;67.10;;;;;;4968369;28;20028;-74
2022/01/05 07:05:05;;;;;;;23.10;3.83;;;23.50;66.90;;;;;;4971678;28;20034;-72
2022/01/05 07:07:31;;;;;;;33.92;4.20;;;23.50;66.80;;;;;;4969753;28;20126;-74
2022/01/05 07:09:58;;;;;;;31.98;4.35;;;23.50;66.90;;;;;;4967894;28;20078;-73
2022/01/05 07:12:25;;;;;;;16.10;2.88;;;23.60;67.00;;;;;;4970057;28;20035;-73
2022/01/05 07:14:51;;;;;;;15.93;2.90;;;23.60;67.10;;;;;;4966797;28;20023;-74
2022/01/05 07:17:18;;;;;;;22.70;3.85;;;23.60;67.10;;;;;;4969154;28;20046;-71
2022/01/05 07:19:47;;;;;;;21.70;4.10;;;23.60;67.30;;;;;;4969446;28;20053;-73
2022/01/05 07:22:13;;;;;;;27.73;6.43;;;23.70;67.40;;;;;;4964769;28;20031;-77
2022/01/05 07:24:39;;;;;;;18.20;3.83;;;23.70;67.30;;;;;;4969232;28;20018;-75
2022/01/05 07:27:06;;;;;;;31.60;4.05;;;23.80;67.20;;;;;;4969873;28;20049;-72
2022/01/05 07:29:33;;;;;;;19.67;3.05;;;23.80;67.10;;;;;;4968320;28;20109;-75
2022/01/05 07:31:59;;;;;;;17.95;2.83;;;23.80;67.00;;;;;;4968707;28;20820;-75
2022/01/05 07:34:26;;;;;;;41.50;4.75;;;23.90;66.90;;;;;;4967363;28;20019;-75
2022/01/05 07:36:52;;;;;;;17.75;3.78;;;23.90;66.60;;;;;;4966100;28;20434;-77
2022/01/05 07:39:19;;;;;;;12.57;2.63;;;24.00;66.40;;;;;;4965479;28;20092;-77
2022/01/05 07:41:46;;;;;;;13.13;2.30;;;24.00;66.10;;;;;;4968626;28;20058;-76
2022/01/05 07:44:12;;;;;;;89.25;11.88;;;24.00;65.80;;;;;;4963189;28;20031;-75
2022/01/05 07:46:39;;;;;;;60.55;8.45;;;24.00;65.80;;;;;;4969230;28;20037;-73
2022/01/05 07:49:06;;;;;;;58.53;7.88;;;24.10;65.80;;;;;;4967337;28;20042;-74
2022/01/05 07:51:34;;;;;;;39.72;6.07;;;24.10;65.60;;;;;;4965153;28;20029;-78
2022/01/05 07:54:03;;;;;;;25.48;3.42;;;24.20;66.10;;;;;;4967288;28;20130;-74
2022/01/05 07:56:29;;;;;;;23.02;3.67;;;24.20;65.40;;;;;;4940258;28;20031;-75
2022/01/05 07:58:56;;;;;;;10.93;2.42;;;24.20;66.10;;;;;;4967819;28;20050;-73
2022/01/05 08:01:23;;;;;;;33.55;4.90;;;24.20;65.70;;;;;;4966498;28;20413;-78
2022/01/05 08:03:50;;;;;;;19.63;3.85;;;24.30;65.30;;;;;;4964224;28;20034;-75
2022/01/05 08:06:17;;;;;;;28.83;4.40;;;24.30;64.80;;;;;;4962577;28;20026;-74
2022/01/05 08:08:47;;;;;;;43.05;6.53;;;24.40;65.40;;;;;;4967344;28;20034;-77
2022/01/05 08:11:14;;;;;;;21.50;3.58;;;24.40;65.70;;;;;;4966602;28;20019;-75
2022/01/05 08:13:40;;;;;;;16.27;2.78;;;24.50;65.20;;;;;;4965730;28;20633;-75
2022/01/05 08:16:08;;;;;;;21.92;3.78;;;24.50;64.80;;;;;;4962630;28;20581;-70
2022/01/05 08:18:35;;;;;;;19.13;2.30;;;24.60;65.00;;;;;;4971694;28;20057;-77
2022/01/05 08:21:01;;;;;;;59.22;6.50;;;24.60;64.80;;;;;;4970153;28;20036;-76
2022/01/05 08:23:28;;;;;;;22.88;3.55;;;24.60;64.60;;;;;;4971225;28;20026;-75
2022/01/05 08:25:55;;;;;;;40.08;4.20;;;24.60;64.10;;;;;;4969828;28;20543;-74
2022/01/05 08:28:21;;;;;;;35.42;4.00;;;24.70;63.80;;;;;;4969964;28;20051;-75
2022/01/05 08:30:48;;;;;;;57.03;9.18;;;24.70;63.70;;;;;;4969740;28;20023;-75
2022/01/05 08:33:16;;;;;;;70.97;7.93;;;24.70;63.70;;;;;;4970351;28;20077;-72
2022/01/05 08:35:44;;;;;;;24.15;4.70;;;24.70;63.90;;;;;;4970763;28;20187;-75
2022/01/05 08:38:12;;;;;;;23.05;4.10;;;24.80;63.90;;;;;;4953799;28;20133;-74
2022/01/05 08:40:39;;;;;;;69.55;7.20;;;24.80;64.00;;;;;;4970333;28;20025;-76
2022/01/05 08:43:07;;;;;;;44.00;6.55;;;24.90;63.90;;;;;;4969027;28;20093;-73
2022/01/05 08:45:33;;;;;;;31.00;4.22;;;24.90;63.80;;;;;;4968381;28;20451;-71
2022/01/05 08:48:00;;;;;;;57.58;4.82;;;25.00;63.70;;;;;;4970065;28;20041;-74
2022/01/05 08:50:30;;;;;;;36.33;5.07;;;25.00;63.50;;;;;;4970283;28;20035;-71
2022/01/05 08:52:58;;;;;;;28.80;4.43;;;25.00;63.20;;;;;;4968998;28;20034;-74
2022/01/05 08:55:36;;;;;;;43.70;5.60;;;25.00;63.10;;;;;;4970576;28;20062;-77
2022/01/05 08:58:02;;;;;;;37.47;6.85;;;25.10;63.00;;;;;;4969655;28;20117;-77
2022/01/05 09:00:29;;;;;;;104.88;13.98;;;25.10;63.30;;;;;;4969221;28;20445;-77
2022/01/05 09:02:55;;;;;;;69.38;8.65;;;25.10;63.40;;;;;;4968343;28;20091;-73
2022/01/05 09:05:22;;;;;;;37.72;4.90;;;25.20;63.20;;;;;;4971124;28;20457;-78
2022/01/05 09:07:49;;;;;;;17.20;3.05;;;25.20;63.10;;;;;;4968902;28;20035;-78
2022/01/05 09:10:16;;;;;;;13.38;2.05;;;25.20;62.90;;;;;;4970321;28;20026;-78
2022/01/05 09:12:43;;;;;;;5.00;1.95;;;25.20;62.70;;;;;;4966216;28;20110;-78
2022/01/05 09:15:10;;;;;;;6.68;2.28;;;25.20;62.70;;;;;;4969980;28;20022;-76
2022/01/05 09:17:37;;;;;;;37.53;4.88;;;25.20;63.00;;;;;;4967657;28;20091;-77
2022/01/05 09:20:04;;;;;;;15.77;2.40;;;25.20;63.50;;;;;;4971107;28;20132;-75
2022/01/05 09:22:31;;;;;;;12.40;2.47;;;25.30;63.40;;;;;;4968839;28;20067;-75
2022/01/05 09:24:57;;;;;;;16.58;2.38;;;25.20;63.40;;;;;;4969026;28;20030;-73
2022/01/05 09:27:24;;;;;;;9.07;3.78;;;25.30;63.70;;;;;;4970369;28;20035;-71
2022/01/05 09:29:50;;;;;;;18.38;5.30;;;25.30;63.70;;;;;;4970638;28;20162;-74
2022/01/05 09:32:17;;;;;;;15.57;3.15;;;25.30;63.80;;;;;;4969095;28;20026;-75
2022/01/05 09:34:44;;;;;;;10.98;2.70;;;25.30;63.90;;;;;;4968041;28;20566;-74
2022/01/05 09:37:19;;;;;;;14.93;3.00;;;25.30;64.20;;;;;;4968010;28;20114;-74
2022/01/05 09:42:31;;;;;;;;;;;25.30;64.40;;;;;;4970462;28;20038;-78
2022/01/05 09:44:58;;;;;;;9.55;2.45;;;25.40;64.20;;;;;;4970560;28;19954;-77
2022/01/05 09:47:31;;;;;;;7.55;2.22;;;25.40;63.80;;;;;;4969165;28;20039;-72
2022/01/05 09:50:07;;;;;;;5.80;1.75;;;25.30;63.60;;;;;;4968947;28;20026;-74
2022/01/05 09:52:35;;;;;;;9.10;2.38;;;25.40;63.80;;;;;;4968603;28;20019;-70
2022/01/05 09:55:03;;;;;;;23.40;9.27;;;25.30;64.40;;;;;;4972756;28;20022;-73
2022/01/05 09:57:30;;;;;;;33.65;5.43;;;25.30;64.40;;;;;;4968439;28;20093;-76
2022/01/05 09:59:57;;;;;;;35.00;6.10;;;25.40;64.30;;;;;;4965657;28;20117;-76
2022/01/05 10:02:24;;;;;;;20.58;3.65;;;25.40;64.20;;;;;;4968681;28;20081;-79
2022/01/05 10:04:51;;;;;;;44.25;5.43;;;25.50;64.60;;;;;;4965312;28;20613;-72
2022/01/05 10:07:17;;;;;;;48.35;5.53;;;25.50;64.50;;;;;;4962292;28;20470;-72
2022/01/05 10:09:49;;;;;;;17.70;2.88;;;25.60;64.40;;;;;;4966790;28;20393;-71
2022/01/05 10:12:16;;;;;;;15.13;2.67;;;25.60;63.90;;;;;;4950478;28;20035;-72
2022/01/05 10:14:47;;;;;;;8.73;1.88;;;25.70;63.50;;;;;;4964548;28;20352;-71
2022/01/05 10:17:16;;;;;;;17.20;3.13;;;25.70;63.40;;;;;;4968071;28;20026;-77
2022/01/05 10:19:44;;;;;;;27.88;3.90;;;25.80;63.50;;;;;;4960532;28;20497;-76
2022/01/05 10:22:49;;;;;;;12.25;4.10;;;25.80;63.30;;;;;;4963296;28;20047;-73
2022/01/05 10:25:20;;;;;;;16.83;3.00;;;25.90;63.00;;;;;;4903030;29;20052;-77
2022/01/05 10:28:01;;;;;;;8.93;3.08;;;25.90;62.80;;;;;;4901713;29;20291;-76
2022/01/05 10:30:35;;;;;;;9.05;1.85;;;26.00;62.80;;;;;;4940475;28;20034;-75
2022/01/05 10:33:01;;;;;;;9.00;2.60;;;26.00;62.20;;;;;;4959900;28;20113;-75
2022/01/05 10:35:28;;;;;;;10.93;2.80;;;26.00;61.90;;;;;;4960607;28;20517;-71
2022/01/05 10:38:15;;;;;;;7.28;2.70;;;26.00;61.90;;;;;;4959988;28;20026;-72
2022/01/05 10:40:43;;;;;;;10.20;2.55;;;26.10;62.00;;;;;;4959748;28;20051;-73
2022/01/05 10:43:12;;;;;;;9.25;1.92;;;26.10;61.90;;;;;;4960471;28;20027;-73
2022/01/05 10:45:51;;;;;;;6.65;1.55;;;26.10;61.60;;;;;;4959189;28;20052;-71
2022/01/05 10:48:25;;;;;;;39.33;4.32;;;26.10;61.50;;;;;;4957400;28;20764;-73
2022/01/05 10:51:28;;;;;;;76.82;61.25;;;26.00;61.80;;;;;;4954935;28;20042;-77
2022/01/05 10:54:17;;;;;;;13.52;2.22;;;26.00;61.90;;;;;;4947380;28;20031;-75
2022/01/05 10:56:44;;;;;;;13.25;3.25;;;26.00;62.70;;;;;;4961718;28;20118;-74
2022/01/05 10:59:14;;;;;;;9.13;2.55;;;26.00;62.30;;;;;;4957131;28;20122;-74
2022/01/05 11:01:42;;;;;;;11.25;2.47;;;26.00;62.40;;;;;;4959723;28;20537;-74
2022/01/05 11:04:20;;;;;;;30.25;5.75;;;25.90;62.20;;;;;;4959220;28;20033;-73
2022/01/05 11:07:03;;;;;;;14.45;3.95;;;25.90;62.50;;;;;;4959638;28;20615;-73
2022/01/05 11:09:33;;;;;;;27.55;5.07;;;25.90;62.80;;;;;;4961466;28;20047;-71
2022/01/05 11:12:00;;;;;;;42.97;5.63;;;25.90;63.30;;;;;;4960397;28;20046;-72
2022/01/05 11:14:34;;;;;;;21.65;3.53;;;26.00;63.40;;;;;;4961840;28;20019;-72
2022/01/05 11:17:06;;;;;;;10.52;2.40;;;26.10;63.20;;;;;;4957442;28;20038;-71
2022/01/05 11:19:36;;;;;;;8.38;2.17;;;26.20;62.20;;;;;;4961465;28;20032;-72
2022/01/05 11:22:10;;;;;;;5.05;1.73;;;26.30;61.90;;;;;;4962525;28;20054;-74
2022/01/05 11:24:40;;;;;;;7.25;1.65;;;26.40;61.50;;;;;;4957623;28;20145;-75
2022/01/05 11:27:09;;;;;;;8.77;1.60;;;26.60;61.00;;;;;;4945636;28;20032;-73
2022/01/05 11:29:36;;;;;;;5.75;2.92;;;26.70;60.80;;;;;;4961988;28;21469;-78
2022/01/05 11:32:08;;;;;;;16.00;4.93;;;26.80;60.50;;;;;;4965020;28;20561;-76
2022/01/05 11:34:35;;;;;;;10.57;2.63;;;26.90;60.30;;;;;;4959516;28;20034;-79
2022/01/05 11:37:02;;;;;;;7.38;3.05;;;27.00;60.10;;;;;;4961006;28;20033;-72
2022/01/05 11:39:31;;;;;;;5.53;1.48;;;27.00;59.90;;;;;;4961496;28;20478;-79
2022/01/05 11:42:01;;;;;;;7.90;1.90;;;27.10;59.90;;;;;;4963503;28;20390;-77
2022/01/05 11:44:29;;;;;;;5.38;1.92;;;27.20;60.00;;;;;;4959528;28;20030;-77
2022/01/05 11:46:56;;;;;;;5.03;1.45;;;27.20;59.90;;;;;;4962409;28;20528;-75
2022/01/05 11:49:28;;;;;;;7.60;1.83;;;27.30;60.00;;;;;;4964873;28;20022;-78
2022/01/05 11:51:59;;;;;;;5.97;2.03;;;27.30;60.00;;;;;;4963391;28;20019;-76
2022/01/05 11:54:27;;;;;;;11.23;3.00;;;27.30;60.00;;;;;;4963426;28;20022;-75
2022/01/05 11:56:57;;;;;;;44.25;4.63;;;27.30;60.00;;;;;;4962647;28;20391;-74
2022/01/05 11:59:35;;;;;;;11.38;4.88;;;27.30;60.10;;;;;;4960316;28;20042;-78
2022/01/05 12:02:14;;;;;;;21.27;6.68;;;27.40;60.10;;;;;;4963377;28;20118;-79
2022/01/05 12:04:59;;;;;;;11.52;4.03;;;27.40;60.30;;;;;;4963748;28;20033;-76
2022/01/05 12:07:42;;;;;;;20.35;4.40;;;27.40;60.00;;;;;;4962283;28;20037;-77
2022/01/05 12:10:23;;;;;;;10.75;3.28;;;27.40;60.00;;;;;;4962219;28;20031;-74
2022/01/05 12:13:05;;;;;;;21.70;3.17;;;27.40;59.90;;;;;;4962449;28;20030;-77
2022/01/05 12:15:43;;;;;;;19.27;4.60;;;27.40;59.50;;;;;;4959206;28;20027;-75
2022/01/05 12:18:12;;;;;;;14.15;4.15;;;27.40;59.50;;;;;;4961237;28;20019;-76
2022/01/05 12:20:40;;;;;;;12.43;3.05;;;27.40;59.40;;;;;;4962843;28;20105;-73
2022/01/05 12:23:25;;;;;;;3.95;1.90;;;27.40;59.30;;;;;;4965634;28;20506;-80
2022/01/05 12:26:05;;;;;;;9.40;3.17;;;27.50;59.20;;;;;;4968070;28;20022;-75
2022/01/05 12:28:35;;;;;;;43.03;8.15;;;27.50;58.70;;;;;;4964160;28;20106;-74
2022/01/05 12:31:02;;;;;;;35.20;4.72;;;27.50;58.70;;;;;;4968036;28;20105;-75
2022/01/05 12:33:42;;;;;;;20.52;5.15;;;27.50;58.50;;;;;;4963043;28;20093;-81
2022/01/05 12:36:08;;;;;;;24.15;3.13;;;27.60;58.30;;;;;;4967997;28;20074;-84
2022/01/05 12:38:50;;;;;;;11.13;2.50;;;27.60;58.00;;;;;;4965835;28;20026;-83
2022/01/05 12:41:32;;;;;;;21.30;3.25;;;27.70;57.80;;;;;;4970910;28;20027;-80
2022/01/05 12:44:22;;;;;;;16.20;2.88;;;27.70;57.50;;;;;;4968101;28;20039;-72
2022/01/05 12:46:52;;;;;;;69.03;9.02;;;27.70;57.10;;;;;;4945150;28;20466;-72
2022/01/05 12:49:42;;;;;;;42.97;7.57;;;27.80;57.10;;;;;;4964940;28;20031;-76
2022/01/05 12:52:15;;;;;;;18.65;4.18;;;27.80;57.00;;;;;;4965742;28;20034;-78